Flight Track Log - Related Links

Times and Time Zones

All times are in EDT time to prevent confusion due to time zone crossing. See the FLG4006 flight status page for this flight to view local times or setup timezone preferences in your user account.

Time Position Orientation Groundspeed Altitude Reporting Facility
EDT Latitude Longitude Course Direction KTS MPH feet Rate Location/Type
Tue 08:22:38 PM 42.2075 -83.3697 200° South 155 178 1,100  Level Cleveland Center
Tue 08:23:40 PM 42.1669 -83.4100 216° Southwest 208 239 2,800 1,837 Climbing Cleveland Center
Tue 08:24:16 PM 42.1350 -83.4364 211° Southwest 224 258 4,100 2,125 Climbing Cleveland Center
Tue 08:25:00 PM 41.9537 -83.5464 217° Southwest  Level FlightAware Approximate
Tue 08:25:16 PM 42.0753 -83.4869 212° Southwest 240 276 6,200  Level Cleveland Center
Tue 08:26:00 PM 41.8760 -83.6240 217° Southwest  Level FlightAware Approximate
Tue 08:26:16 PM 42.0075 -83.5369 209° Southwest 271 312 8,900  Level Cleveland Center
Tue 08:27:00 PM 41.7931 -83.6906 210° Southwest  Level FlightAware Approximate
Tue 08:27:16 PM 41.9392 -83.5925 211° Southwest 284 327 11,200  Level Cleveland Center
Tue 08:28:00 PM 41.7088 -83.7540 200° South  Level FlightAware Approximate
Tue 08:28:16 PM 41.8625 -83.6503 209° Southwest 302 348 12,800  Level Cleveland Center
Tue 08:29:16 PM 41.7817 -83.7133 210° Southwest 322 371 14,900 1,800 Climbing Cleveland Center
Tue 08:30:16 PM 41.7008 -83.7761 210° Southwest 340 391 16,400 1,450 Climbing Cleveland Center
Tue 08:31:16 PM 41.6175 -83.8414 210° Southwest 340 391 17,800 1,300 Climbing Cleveland Center
Tue 08:32:16 PM 41.5342 -83.9092 211° Southwest 345 397 19,000 1,150 Climbing Cleveland Center
Tue 08:33:16 PM 41.4447 -83.9767 210° Southwest 356 410 20,100 950 Climbing Cleveland Center
Tue 08:34:16 PM 41.3550 -84.0494 211° Southwest 372 428 20,900 700 Climbing Cleveland Center
Tue 08:35:16 PM 41.2653 -84.1192 210° Southwest 372 428 21,500 -64 Climbing Cleveland Center
Tue 08:37:24 PM 41.0692 -84.2889 213° Southwest 413 475 20,700 -476 Descending Indianapolis Center
Tue 08:38:25 PM 40.9736 -84.3694 212° Southwest 409 471 20,000 -341 Descending Indianapolis Center
Tue 08:39:27 PM 40.8817 -84.4489 213° Southwest 392 451 20,000  Level Indianapolis Center
Tue 08:40:28 PM 40.7886 -84.5264 212° Southwest 401 461 20,000  Level Indianapolis Center
Tue 08:41:29 PM 40.6739 -84.6272 214° Southwest 412 474 20,000  Level Indianapolis Center
Tue 08:42:31 PM 40.5742 -84.7092 212° Southwest 419 482 20,000  Level Indianapolis Center
Tue 08:43:32 PM 40.4758 -84.7917 213° Southwest 420 483 20,000 -732 Level Indianapolis Center
Tue 08:44:34 PM 40.3794 -84.8775 214° Southwest 420 483 18,500 -1,730 Descending Indianapolis Center
Tue 08:45:23 PM 40.2922 -84.9481 212° Southwest 416 479 16,800 -1,951 Descending Indianapolis Center
Tue 08:46:37 PM 40.1828 -84.9594 185° South 377 434 14,500 -1,867 Descending Indianapolis Center
Tue 08:47:38 PM 40.0833 -84.9314 168° South 369 425 12,600 -1,900 Descending Indianapolis Center
Tue 08:48:37 PM 39.9772 -84.9019 168° South 353 406 10,700 -1,545 Descending Indianapolis Center
Tue 08:49:19 PM 39.9139 -84.8844 168° South 347 399 10,000 -408 Descending Indianapolis Center
Tue 08:50:20 PM 39.8200 -84.8586 168° South 345 397 10,000  Level Indianapolis Center
Tue 08:51:44 PM 39.6956 -84.8922 192° South 347 399 10,000  Level Indianapolis Center
Tue 08:52:45 PM 39.6172 -84.9572 213° Southwest 342 394 10,000  Level Indianapolis Center
Tue 08:53:46 PM 39.5344 -84.9139 158° South 329 379 10,000 -780 Level Indianapolis Center
Tue 08:54:48 PM 39.4739 -84.8544 143° Southeast 290 334 8,400 -1,610 Descending Indianapolis Center
Tue 08:55:49 PM 39.4106 -84.7933 143° Southeast 285 328 6,700 -1,659 Descending Indianapolis Center
Tue 08:56:51 PM 39.3489 -84.7361 144° Southeast 280 322 5,000 -1,512 Descending Indianapolis Center
Tue 08:57:52 PM 39.2894 -84.6811 144° Southeast 272 313 3,600 -885 Descending Indianapolis Center
Tue 08:58:53 PM 39.2167 -84.6650 170° South 260 299 3,200 -513 Descending Indianapolis Center
Tue 09:00:24 PM 39.1333 -84.6667 181° South 145 167 2,300 -596 Descending Cincinnati TRACON
Tue 09:01:24 PM 39.1000 -84.6667 180° South 127 146 1,700 -600 Descending Cincinnati TRACON

Login

Don't have an account? Register now (free) for customized features, flight alerts, and more!